sensor_id;sensor_type;location;lat;lon;timestamp;temperature;humidity
15969;DHT22;8085;53.472;9.794;2023-04-23T00:00:35;15.30;99.90
15969;DHT22;8085;53.472;9.794;2023-04-23T00:03:06;15.30;99.90
15969;DHT22;8085;53.472;9.794;2023-04-23T00:05:35;15.20;99.90
15969;DHT22;8085;53.472;9.794;2023-04-23T00:08:02;15.10;99.90
15969;DHT22;8085;53.472;9.794;2023-04-23T00:10:30;15.10;99.90
15969;DHT22;8085;53.472;9.794;2023-04-23T00:12:58;15.10;99.90
15969;DHT22;8085;53.472;9.794;2023-04-23T00:15:26;15.00;99.90
15969;DHT22;8085;53.472;9.794;2023-04-23T00:17:54;15.00;99.90
15969;DHT22;8085;53.472;9.794;2023-04-23T00:20:21;14.90;99.90
15969;DHT22;8085;53.472;9.794;2023-04-23T00:22:48;14.90;99.90
15969;DHT22;8085;53.472;9.794;2023-04-23T00:25:15;15.00;99.90
15969;DHT22;8085;53.472;9.794;2023-04-23T00:27:42;14.90;99.90
15969;DHT22;8085;53.472;9.794;2023-04-23T00:30:10;15.00;99.90
15969;DHT22;8085;53.472;9.794;2023-04-23T00:32:37;14.90;99.90
15969;DHT22;8085;53.472;9.794;2023-04-23T00:35:06;14.80;99.90
15969;DHT22;8085;53.472;9.794;2023-04-23T00:37:33;14.80;99.90
15969;DHT22;8085;53.472;9.794;2023-04-23T00:40:00;14.80;99.90
15969;DHT22;8085;53.472;9.794;2023-04-23T00:42:29;14.70;99.90
15969;DHT22;8085;53.472;9.794;2023-04-23T00:44:56;14.80;99.90
15969;DHT22;8085;53.472;9.794;2023-04-23T00:47:23;14.70;99.90
15969;DHT22;8085;53.472;9.794;2023-04-23T00:49:50;14.70;99.90
15969;DHT22;8085;53.472;9.794;2023-04-23T00:52:21;14.70;99.90
15969;DHT22;8085;53.472;9.794;2023-04-23T00:54:48;14.50;99.90
15969;DHT22;8085;53.472;9.794;2023-04-23T00:57:15;14.60;99.90
15969;DHT22;8085;53.472;9.794;2023-04-23T00:59:42;14.50;99.90
15969;DHT22;8085;53.472;9.794;2023-04-23T01:02:09;14.50;99.90
15969;DHT22;8085;53.472;9.794;2023-04-23T01:04:37;14.50;99.90
15969;DHT22;8085;53.472;9.794;2023-04-23T01:07:04;14.50;99.90
15969;DHT22;8085;53.472;9.794;2023-04-23T01:09:33;14.50;99.90
15969;DHT22;8085;53.472;9.794;2023-04-23T01:12:00;14.40;99.90
15969;DHT22;8085;53.472;9.794;2023-04-23T01:14:28;14.40;99.90
15969;DHT22;8085;53.472;9.794;2023-04-23T01:16:55;14.30;99.90
15969;DHT22;8085;53.472;9.794;2023-04-23T01:19:22;14.40;99.90
15969;DHT22;8085;53.472;9.794;2023-04-23T01:21:50;14.30;99.90
15969;DHT22;8085;53.472;9.794;2023-04-23T01:24:19;14.30;99.90
15969;DHT22;8085;53.472;9.794;2023-04-23T01:26:46;14.30;99.90
15969;DHT22;8085;53.472;9.794;2023-04-23T01:29:13;14.30;99.90
15969;DHT22;8085;53.472;9.794;2023-04-23T01:31:40;14.20;99.90
15969;DHT22;8085;53.472;9.794;2023-04-23T01:34:07;14.30;99.90
15969;DHT22;8085;53.472;9.794;2023-04-23T01:36:35;14.30;99.90
15969;DHT22;8085;53.472;9.794;2023-04-23T01:39:01;14.30;99.90
15969;DHT22;8085;53.472;9.794;2023-04-23T01:41:30;14.20;99.90
15969;DHT22;8085;53.472;9.794;2023-04-23T01:43:57;14.20;99.90
15969;DHT22;8085;53.472;9.794;2023-04-23T01:46:25;14.20;99.90
15969;DHT22;8085;53.472;9.794;2023-04-23T01:48:52;14.00;99.90
15969;DHT22;8085;53.472;9.794;2023-04-23T01:51:19;13.50;99.90
15969;DHT22;8085;53.472;9.794;2023-04-23T01:53:48;13.10;99.90
15969;DHT22;8085;53.472;9.794;2023-04-23T01:56:15;12.90;99.90
15969;DHT22;8085;53.472;9.794;2023-04-23T01:58:43;12.60;99.90
15969;DHT22;8085;53.472;9.794;2023-04-23T02:01:10;12.40;99.90
15969;DHT22;8085;53.472;9.794;2023-04-23T02:03:37;12.20;99.90
15969;DHT22;8085;53.472;9.794;2023-04-23T02:06:04;12.00;99.90
15969;DHT22;8085;53.472;9.794;2023-04-23T02:08:31;12.00;99.90
15969;DHT22;8085;53.472;9.794;2023-04-23T02:10:58;11.90;99.90
15969;DHT22;8085;53.472;9.794;2023-04-23T02:13:25;11.80;99.90
15969;DHT22;8085;53.472;9.794;2023-04-23T02:15:53;11.90;99.90
15969;DHT22;8085;53.472;9.794;2023-04-23T02:18:20;11.90;99.90
15969;DHT22;8085;53.472;9.794;2023-04-23T02:20:47;11.90;99.90
15969;DHT22;8085;53.472;9.794;2023-04-23T02:23:14;11.90;99.90
15969;DHT22;8085;53.472;9.794;2023-04-23T02:25:41;11.80;99.90
15969;DHT22;8085;53.472;9.794;2023-04-23T02:28:08;11.80;99.90
15969;DHT22;8085;53.472;9.794;2023-04-23T02:30:38;11.80;99.90
15969;DHT22;8085;53.472;9.794;2023-04-23T02:33:11;11.80;99.90
15969;DHT22;8085;53.472;9.794;2023-04-23T02:35:38;11.80;99.90
15969;DHT22;8085;53.472;9.794;2023-04-23T02:38:05;11.80;99.90
15969;DHT22;8085;53.472;9.794;2023-04-23T02:40:32;11.80;99.90
15969;DHT22;8085;53.472;9.794;2023-04-23T02:42:59;11.70;99.90
15969;DHT22;8085;53.472;9.794;2023-04-23T02:45:26;11.50;99.90
15969;DHT22;8085;53.472;9.794;2023-04-23T02:47:52;11.50;99.90
15969;DHT22;8085;53.472;9.794;2023-04-23T02:50:21;11.40;99.90
15969;DHT22;8085;53.472;9.794;2023-04-23T02:52:48;11.30;99.90
15969;DHT22;8085;53.472;9.794;2023-04-23T02:55:15;11.30;99.90
15969;DHT22;8085;53.472;9.794;2023-04-23T02:57:42;11.20;99.90
15969;DHT22;8085;53.472;9.794;2023-04-23T03:00:10;11.20;99.90
15969;DHT22;8085;53.472;9.794;2023-04-23T03:02:39;11.20;99.90
15969;DHT22;8085;53.472;9.794;2023-04-23T03:05:07;11.20;99.90
15969;DHT22;8085;53.472;9.794;2023-04-23T03:07:35;11.20;99.90
15969;DHT22;8085;53.472;9.794;2023-04-23T03:10:02;11.20;99.90
15969;DHT22;8085;53.472;9.794;2023-04-23T03:12:30;11.20;99.90
15969;DHT22;8085;53.472;9.794;2023-04-23T03:14:56;11.10;99.90
15969;DHT22;8085;53.472;9.794;2023-04-23T03:17:23;11.10;99.90
15969;DHT22;8085;53.472;9.794;2023-04-23T03:19:50;11.10;99.90
15969;DHT22;8085;53.472;9.794;2023-04-23T03:22:17;11.10;99.90
15969;DHT22;8085;53.472;9.794;2023-04-23T03:24:45;11.00;99.90
15969;DHT22;8085;53.472;9.794;2023-04-23T03:27:12;11.00;99.90
15969;DHT22;8085;53.472;9.794;2023-04-23T03:29:39;11.10;99.90
15969;DHT22;8085;53.472;9.794;2023-04-23T03:32:06;11.00;99.90
15969;DHT22;8085;53.472;9.794;2023-04-23T03:34:33;11.00;99.90
15969;DHT22;8085;53.472;9.794;2023-04-23T03:37:00;11.00;99.90
15969;DHT22;8085;53.472;9.794;2023-04-23T03:39:27;11.10;99.90
15969;DHT22;8085;53.472;9.794;2023-04-23T03:41:55;11.00;99.90
15969;DHT22;8085;53.472;9.794;2023-04-23T03:44:22;10.80;99.90
15969;DHT22;8085;53.472;9.794;2023-04-23T03:46:49;10.80;99.90
15969;DHT22;8085;53.472;9.794;2023-04-23T03:49:17;10.70;99.90
15969;DHT22;8085;53.472;9.794;2023-04-23T03:51:43;10.70;99.90
15969;DHT22;8085;53.472;9.794;2023-04-23T03:54:10;10.60;99.90
15969;DHT22;8085;53.472;9.794;2023-04-23T03:56:37;10.60;99.90
15969;DHT22;8085;53.472;9.794;2023-04-23T03:59:05;10.60;99.90
15969;DHT22;8085;53.472;9.794;2023-04-23T04:01:32;10.60;99.90
15969;DHT22;8085;53.472;9.794;2023-04-23T04:04:00;10.60;99.90
15969;DHT22;8085;53.472;9.794;2023-04-23T04:06:27;10.60;99.90
15969;DHT22;8085;53.472;9.794;2023-04-23T04:08:54;10.60;99.90
15969;DHT22;8085;53.472;9.794;2023-04-23T04:11:21;10.60;99.90
15969;DHT22;8085;53.472;9.794;2023-04-23T04:13:48;10.60;99.90
15969;DHT22;8085;53.472;9.794;2023-04-23T04:16:16;10.50;99.90
15969;DHT22;8085;53.472;9.794;2023-04-23T04:18:43;10.50;99.90
15969;DHT22;8085;53.472;9.794;2023-04-23T04:21:10;10.50;99.90
15969;DHT22;8085;53.472;9.794;2023-04-23T04:23:37;10.60;99.90
15969;DHT22;8085;53.472;9.794;2023-04-23T04:26:04;10.60;99.90
15969;DHT22;8085;53.472;9.794;2023-04-23T04:28:32;10.50;99.90
15969;DHT22;8085;53.472;9.794;2023-04-23T04:31:01;10.50;99.90
15969;DHT22;8085;53.472;9.794;2023-04-23T04:33:31;10.50;99.90
15969;DHT22;8085;53.472;9.794;2023-04-23T04:36:00;10.60;99.90
15969;DHT22;8085;53.472;9.794;2023-04-23T04:38:27;10.50;99.90
15969;DHT22;8085;53.472;9.794;2023-04-23T04:40:54;10.50;99.90
15969;DHT22;8085;53.472;9.794;2023-04-23T04:43:23;10.50;99.90
15969;DHT22;8085;53.472;9.794;2023-04-23T04:45:50;10.40;99.90
15969;DHT22;8085;53.472;9.794;2023-04-23T04:48:18;10.40;99.90
15969;DHT22;8085;53.472;9.794;2023-04-23T04:50:46;10.30;99.90
15969;DHT22;8085;53.472;9.794;2023-04-23T04:53:13;10.40;99.90
15969;DHT22;8085;53.472;9.794;2023-04-23T04:55:40;10.30;99.90
15969;DHT22;8085;53.472;9.794;2023-04-23T04:58:07;10.30;99.90
15969;DHT22;8085;53.472;9.794;2023-04-23T05:00:34;10.30;99.90
15969;DHT22;8085;53.472;9.794;2023-04-23T05:03:01;10.20;99.90
15969;DHT22;8085;53.472;9.794;2023-04-23T05:05:28;10.30;99.90
15969;DHT22;8085;53.472;9.794;2023-04-23T05:07:56;10.20;99.90
15969;DHT22;8085;53.472;9.794;2023-04-23T05:10:27;10.20;99.90
15969;DHT22;8085;53.472;9.794;2023-04-23T05:12:55;10.20;99.90
15969;DHT22;8085;53.472;9.794;2023-04-23T05:15:22;10.20;99.90
15969;DHT22;8085;53.472;9.794;2023-04-23T05:17:48;10.20;99.90
15969;DHT22;8085;53.472;9.794;2023-04-23T05:20:18;10.30;99.90
15969;DHT22;8085;53.472;9.794;2023-04-23T05:22:45;10.30;99.90
15969;DHT22;8085;53.472;9.794;2023-04-23T05:25:13;10.30;99.90
15969;DHT22;8085;53.472;9.794;2023-04-23T05:27:40;10.30;99.90
15969;DHT22;8085;53.472;9.794;2023-04-23T05:30:09;10.30;99.90
15969;DHT22;8085;53.472;9.794;2023-04-23T05:32:36;10.30;99.90
15969;DHT22;8085;53.472;9.794;2023-04-23T05:35:04;10.30;99.90
15969;DHT22;8085;53.472;9.794;2023-04-23T05:37:31;10.40;99.90
15969;DHT22;8085;53.472;9.794;2023-04-23T05:39:58;10.40;99.90
15969;DHT22;8085;53.472;9.794;2023-04-23T05:42:27;10.40;99.90
15969;DHT22;8085;53.472;9.794;2023-04-23T05:44:54;10.40;99.90
15969;DHT22;8085;53.472;9.794;2023-04-23T05:47:24;10.50;92.50
15969;DHT22;8085;53.472;9.794;2023-04-23T05:49:51;10.40;85.90
15969;DHT22;8085;53.472;9.794;2023-04-23T05:52:18;10.20;85.70
15969;DHT22;8085;53.472;9.794;2023-04-23T05:54:45;10.30;95.40
15969;DHT22;8085;53.472;9.794;2023-04-23T05:57:13;10.20;98.10
15969;DHT22;8085;53.472;9.794;2023-04-23T05:59:41;10.20;99.20
15969;DHT22;8085;53.472;9.794;2023-04-23T06:02:09;10.20;97.50
15969;DHT22;8085;53.472;9.794;2023-04-23T06:04:37;10.20;98.40
15969;DHT22;8085;53.472;9.794;2023-04-23T06:07:04;10.30;99.00
15969;DHT22;8085;53.472;9.794;2023-04-23T06:09:31;10.40;99.90
15969;DHT22;8085;53.472;9.794;2023-04-23T06:11:59;10.40;98.40
15969;DHT22;8085;53.472;9.794;2023-04-23T06:14:31;10.50;88.90
15969;DHT22;8085;53.472;9.794;2023-04-23T06:16:59;10.50;89.20
15969;DHT22;8085;53.472;9.794;2023-04-23T06:19:26;10.60;78.10
15969;DHT22;8085;53.472;9.794;2023-04-23T06:21:54;10.60;78.50
15969;DHT22;8085;53.472;9.794;2023-04-23T06:24:21;10.70;76.30
15969;DHT22;8085;53.472;9.794;2023-04-23T06:26:51;10.70;78.40
15969;DHT22;8085;53.472;9.794;2023-04-23T06:29:18;10.70;68.50
15969;DHT22;8085;53.472;9.794;2023-04-23T06:31:45;10.70;67.30
15969;DHT22;8085;53.472;9.794;2023-04-23T06:34:14;10.80;61.00
15969;DHT22;8085;53.472;9.794;2023-04-23T06:36:41;10.80;43.70
15969;DHT22;8085;53.472;9.794;2023-04-23T06:39:11;10.70;43.60
15969;DHT22;8085;53.472;9.794;2023-04-23T06:41:41;10.70;34.00
15969;DHT22;8085;53.472;9.794;2023-04-23T06:44:11;10.60;32.40
15969;DHT22;8085;53.472;9.794;2023-04-23T06:46:38;10.60;49.20
15969;DHT22;8085;53.472;9.794;2023-04-23T06:49:06;10.60;47.60
15969;DHT22;8085;53.472;9.794;2023-04-23T06:51:34;10.60;28.20
15969;DHT22;8085;53.472;9.794;2023-04-23T06:54:01;10.50;16.90
15969;DHT22;8085;53.472;9.794;2023-04-23T06:56:29;10.40;28.30
15969;DHT22;8085;53.472;9.794;2023-04-23T06:58:56;10.30;45.80
15969;DHT22;8085;53.472;9.794;2023-04-23T07:01:23;10.40;51.10
15969;DHT22;8085;53.472;9.794;2023-04-23T07:03:52;10.40;47.20
15969;DHT22;8085;53.472;9.794;2023-04-23T07:06:19;10.50;39.20
15969;DHT22;8085;53.472;9.794;2023-04-23T07:08:47;10.60;33.30
15969;DHT22;8085;53.472;9.794;2023-04-23T07:11:14;10.70;35.80
15969;DHT22;8085;53.472;9.794;2023-04-23T07:13:42;10.70;1.00
15969;DHT22;8085;53.472;9.794;2023-04-23T07:16:09;10.80;1.00
15969;DHT22;8085;53.472;9.794;2023-04-23T07:18:38;10.90;1.00
15969;DHT22;8085;53.472;9.794;2023-04-23T07:21:05;10.90;1.00
15969;DHT22;8085;53.472;9.794;2023-04-23T07:23:32;11.00;1.00
15969;DHT22;8085;53.472;9.794;2023-04-23T07:26:03;10.90;1.00
15969;DHT22;8085;53.472;9.794;2023-04-23T07:28:33;10.90;1.00
15969;DHT22;8085;53.472;9.794;2023-04-23T07:31:01;11.00;1.00
15969;DHT22;8085;53.472;9.794;2023-04-23T07:33:32;11.10;1.00
15969;DHT22;8085;53.472;9.794;2023-04-23T07:36:02;11.30;1.00
15969;DHT22;8085;53.472;9.794;2023-04-23T07:38:33;11.30;1.00
15969;DHT22;8085;53.472;9.794;2023-04-23T07:41:00;11.50;1.00
15969;DHT22;8085;53.472;9.794;2023-04-23T07:43:29;11.40;1.00
15969;DHT22;8085;53.472;9.794;2023-04-23T07:46:00;11.50;1.00
15969;DHT22;8085;53.472;9.794;2023-04-23T07:48:27;11.50;1.00
15969;DHT22;8085;53.472;9.794;2023-04-23T07:50:55;11.60;1.00
15969;DHT22;8085;53.472;9.794;2023-04-23T07:53:22;11.60;1.00
15969;DHT22;8085;53.472;9.794;2023-04-23T07:55:49;11.60;99.90
15969;DHT22;8085;53.472;9.794;2023-04-23T07:58:17;11.70;99.90
15969;DHT22;8085;53.472;9.794;2023-04-23T08:00:45;11.80;99.90
15969;DHT22;8085;53.472;9.794;2023-04-23T08:03:13;11.70;99.90
15969;DHT22;8085;53.472;9.794;2023-04-23T08:05:40;11.70;99.90
15969;DHT22;8085;53.472;9.794;2023-04-23T08:08:07;11.70;1.00
15969;DHT22;8085;53.472;9.794;2023-04-23T08:10:34;11.80;99.90
15969;DHT22;8085;53.472;9.794;2023-04-23T08:13:02;11.80;99.90
15969;DHT22;8085;53.472;9.794;2023-04-23T08:15:30;11.90;99.90
15969;DHT22;8085;53.472;9.794;2023-04-23T08:18:01;12.20;99.90
15969;DHT22;8085;53.472;9.794;2023-04-23T08:20:28;12.30;1.00
15969;DHT22;8085;53.472;9.794;2023-04-23T08:22:56;12.50;1.00
15969;DHT22;8085;53.472;9.794;2023-04-23T08:25:24;12.50;1.00
15969;DHT22;8085;53.472;9.794;2023-04-23T08:27:53;12.70;1.00
15969;DHT22;8085;53.472;9.794;2023-04-23T08:30:20;12.60;1.00
15969;DHT22;8085;53.472;9.794;2023-04-23T08:32:51;12.60;1.00
15969;DHT22;8085;53.472;9.794;2023-04-23T08:35:22;12.80;14.90
15969;DHT22;8085;53.472;9.794;2023-04-23T08:37:56;12.90;1.00
15969;DHT22;8085;53.472;9.794;2023-04-23T08:40:25;13.00;99.90
15969;DHT22;8085;53.472;9.794;2023-04-23T08:42:57;12.70;1.00
15969;DHT22;8085;53.472;9.794;2023-04-23T08:45:26;12.90;1.00
15969;DHT22;8085;53.472;9.794;2023-04-23T08:47:57;13.30;99.90
15969;DHT22;8085;53.472;9.794;2023-04-23T08:50:28;13.40;1.00
15969;DHT22;8085;53.472;9.794;2023-04-23T08:52:56;13.60;1.00
15969;DHT22;8085;53.472;9.794;2023-04-23T08:55:33;13.80;1.00
15969;DHT22;8085;53.472;9.794;2023-04-23T08:58:09;14.10;1.00
15969;DHT22;8085;53.472;9.794;2023-04-23T09:00:54;14.10;99.90
15969;DHT22;8085;53.472;9.794;2023-04-23T09:03:41;14.50;1.00
15969;DHT22;8085;53.472;9.794;2023-04-23T09:06:14;14.90;1.00
15969;DHT22;8085;53.472;9.794;2023-04-23T09:08:50;14.80;99.90
15969;DHT22;8085;53.472;9.794;2023-04-23T09:11:23;14.50;1.00
15969;DHT22;8085;53.472;9.794;2023-04-23T09:14:02;14.10;1.00
15969;DHT22;8085;53.472;9.794;2023-04-23T09:16:38;14.30;1.00
15969;DHT22;8085;53.472;9.794;2023-04-23T09:19:40;14.50;1.00
15969;DHT22;8085;53.472;9.794;2023-04-23T09:22:27;14.80;1.00
15969;DHT22;8085;53.472;9.794;2023-04-23T09:25:07;14.90;1.00
15969;DHT22;8085;53.472;9.794;2023-04-23T09:27:44;15.50;1.00
15969;DHT22;8085;53.472;9.794;2023-04-23T09:30:47;15.70;1.00
15969;DHT22;8085;53.472;9.794;2023-04-23T09:33:37;15.90;99.90
15969;DHT22;8085;53.472;9.794;2023-04-23T09:36:15;16.00;1.00
15969;DHT22;8085;53.472;9.794;2023-04-23T09:38:59;16.20;1.00
15969;DHT22;8085;53.472;9.794;2023-04-23T09:41:38;15.60;1.00
15969;DHT22;8085;53.472;9.794;2023-04-23T09:44:08;15.80;1.00
15969;DHT22;8085;53.472;9.794;2023-04-23T09:46:43;16.00;1.00
15969;DHT22;8085;53.472;9.794;2023-04-23T09:49:25;16.50;1.00
15969;DHT22;8085;53.472;9.794;2023-04-23T09:52:05;16.70;99.90
15969;DHT22;8085;53.472;9.794;2023-04-23T09:54:55;16.70;99.90
15969;DHT22;8085;53.472;9.794;2023-04-23T09:57:45;16.60;21.80
15969;DHT22;8085;53.472;9.794;2023-04-23T10:00:23;16.90;99.90
15969;DHT22;8085;53.472;9.794;2023-04-23T10:03:13;17.20;14.90
15969;DHT22;8085;53.472;9.794;2023-04-23T10:05:43;17.40;1.00
15969;DHT22;8085;53.472;9.794;2023-04-23T10:08:13;17.60;1.00
15969;DHT22;8085;53.472;9.794;2023-04-23T10:10:46;17.80;1.00
15969;DHT22;8085;53.472;9.794;2023-04-23T10:13:16;18.50;1.00
15969;DHT22;8085;53.472;9.794;2023-04-23T10:15:45;18.30;1.00
15969;DHT22;8085;53.472;9.794;2023-04-23T10:18:15;18.20;1.00
15969;DHT22;8085;53.472;9.794;2023-04-23T10:20:52;18.30;1.00
15969;DHT22;8085;53.472;9.794;2023-04-23T10:23:21;18.30;1.00
15969;DHT22;8085;53.472;9.794;2023-04-23T10:25:52;18.10;1.00
15969;DHT22;8085;53.472;9.794;2023-04-23T10:28:21;17.20;1.00
15969;DHT22;8085;53.472;9.794;2023-04-23T10:30:53;17.50;1.00
15969;DHT22;8085;53.472;9.794;2023-04-23T10:33:22;18.00;1.00
15969;DHT22;8085;53.472;9.794;2023-04-23T10:35:50;18.40;1.00
15969;DHT22;8085;53.472;9.794;2023-04-23T10:38:20;18.20;1.00
15969;DHT22;8085;53.472;9.794;2023-04-23T10:40:51;18.50;1.00
15969;DHT22;8085;53.472;9.794;2023-04-23T10:43:21;18.60;1.00
15969;DHT22;8085;53.472;9.794;2023-04-23T10:45:49;18.50;99.90
15969;DHT22;8085;53.472;9.794;2023-04-23T10:48:16;18.10;1.00
15969;DHT22;8085;53.472;9.794;2023-04-23T10:50:42;18.20;1.00
15969;DHT22;8085;53.472;9.794;2023-04-23T10:53:17;18.40;1.00
15969;DHT22;8085;53.472;9.794;2023-04-23T10:55:46;18.90;99.90
15969;DHT22;8085;53.472;9.794;2023-04-23T10:58:14;19.00;99.90
15969;DHT22;8085;53.472;9.794;2023-04-23T11:00:43;19.00;99.90
15969;DHT22;8085;53.472;9.794;2023-04-23T11:03:36;19.20;99.90
15969;DHT22;8085;53.472;9.794;2023-04-23T11:06:05;19.40;99.90
15969;DHT22;8085;53.472;9.794;2023-04-23T11:08:34;19.00;99.90
15969;DHT22;8085;53.472;9.794;2023-04-23T11:11:05;19.30;99.90
15969;DHT22;8085;53.472;9.794;2023-04-23T11:13:34;19.60;99.90
15969;DHT22;8085;53.472;9.794;2023-04-23T11:16:15;19.30;99.90
15969;DHT22;8085;53.472;9.794;2023-04-23T11:18:59;19.90;99.90
15969;DHT22;8085;53.472;9.794;2023-04-23T11:21:59;20.30;99.90
15969;DHT22;8085;53.472;9.794;2023-04-23T11:24:31;20.50;99.90
15969;DHT22;8085;53.472;9.794;2023-04-23T11:26:59;20.30;99.90
15969;DHT22;8085;53.472;9.794;2023-04-23T11:29:28;20.50;99.90
15969;DHT22;8085;53.472;9.794;2023-04-23T11:31:56;19.60;99.90
15969;DHT22;8085;53.472;9.794;2023-04-23T11:34:23;20.00;99.90
15969;DHT22;8085;53.472;9.794;2023-04-23T11:36:52;20.10;99.90
15969;DHT22;8085;53.472;9.794;2023-04-23T11:39:20;19.50;99.90
15969;DHT22;8085;53.472;9.794;2023-04-23T11:41:48;19.40;99.90
15969;DHT22;8085;53.472;9.794;2023-04-23T11:44:17;19.90;99.90
15969;DHT22;8085;53.472;9.794;2023-04-23T11:46:46;20.30;99.90
15969;DHT22;8085;53.472;9.794;2023-04-23T11:49:15;20.00;99.90
15969;DHT22;8085;53.472;9.794;2023-04-23T11:51:43;20.00;99.90
15969;DHT22;8085;53.472;9.794;2023-04-23T11:54:10;19.60;99.90
15969;DHT22;8085;53.472;9.794;2023-04-23T11:56:39;19.80;99.90
15969;DHT22;8085;53.472;9.794;2023-04-23T11:59:06;20.00;99.90
15969;DHT22;8085;53.472;9.794;2023-04-23T12:01:43;20.00;99.90
15969;DHT22;8085;53.472;9.794;2023-04-23T12:04:17;20.40;99.90
15969;DHT22;8085;53.472;9.794;2023-04-23T12:06:46;20.20;99.90
15969;DHT22;8085;53.472;9.794;2023-04-23T12:09:15;20.10;99.90
15969;DHT22;8085;53.472;9.794;2023-04-23T12:11:44;20.10;99.90
15969;DHT22;8085;53.472;9.794;2023-04-23T12:14:13;20.30;99.90
15969;DHT22;8085;53.472;9.794;2023-04-23T12:16:41;20.60;99.90
15969;DHT22;8085;53.472;9.794;2023-04-23T12:19:08;20.70;99.90
15969;DHT22;8085;53.472;9.794;2023-04-23T12:21:48;20.60;99.90
15969;DHT22;8085;53.472;9.794;2023-04-23T12:24:15;20.80;99.90
15969;DHT22;8085;53.472;9.794;2023-04-23T12:26:42;20.60;99.90
15969;DHT22;8085;53.472;9.794;2023-04-23T12:29:12;20.70;99.90
15969;DHT22;8085;53.472;9.794;2023-04-23T12:31:39;20.80;99.90
15969;DHT22;8085;53.472;9.794;2023-04-23T12:34:09;20.80;99.90
15969;DHT22;8085;53.472;9.794;2023-04-23T12:36:37;21.30;99.90
15969;DHT22;8085;53.472;9.794;2023-04-23T12:39:37;20.90;99.90
15969;DHT22;8085;53.472;9.794;2023-04-23T12:42:04;21.10;99.90
15969;DHT22;8085;53.472;9.794;2023-04-23T12:44:33;21.00;99.90
15969;DHT22;8085;53.472;9.794;2023-04-23T12:47:02;20.90;99.90
15969;DHT22;8085;53.472;9.794;2023-04-23T12:49:30;20.60;99.90
15969;DHT22;8085;53.472;9.794;2023-04-23T12:51:57;20.20;99.90
15969;DHT22;8085;53.472;9.794;2023-04-23T12:54:27;20.00;99.90
15969;DHT22;8085;53.472;9.794;2023-04-23T12:56:57;19.60;99.90
15969;DHT22;8085;53.472;9.794;2023-04-23T12:59:24;19.40;99.90
15969;DHT22;8085;53.472;9.794;2023-04-23T13:01:52;19.00;99.90
15969;DHT22;8085;53.472;9.794;2023-04-23T13:04:19;18.80;99.90
15969;DHT22;8085;53.472;9.794;2023-04-23T13:06:47;18.70;99.90
15969;DHT22;8085;53.472;9.794;2023-04-23T13:09:14;18.60;99.90
15969;DHT22;8085;53.472;9.794;2023-04-23T13:11:40;18.60;99.90
15969;DHT22;8085;53.472;9.794;2023-04-23T13:14:09;18.80;99.90
15969;DHT22;8085;53.472;9.794;2023-04-23T13:16:35;18.90;99.90
15969;DHT22;8085;53.472;9.794;2023-04-23T13:19:03;19.20;99.90
15969;DHT22;8085;53.472;9.794;2023-04-23T13:21:30;19.70;99.90
15969;DHT22;8085;53.472;9.794;2023-04-23T13:23:57;19.70;99.90
15969;DHT22;8085;53.472;9.794;2023-04-23T13:26:25;19.70;99.90
15969;DHT22;8085;53.472;9.794;2023-04-23T13:28:56;19.80;99.90
15969;DHT22;8085;53.472;9.794;2023-04-23T13:31:24;19.80;99.90
15969;DHT22;8085;53.472;9.794;2023-04-23T13:33:54;20.20;99.90
15969;DHT22;8085;53.472;9.794;2023-04-23T13:36:22;20.50;99.90
15969;DHT22;8085;53.472;9.794;2023-04-23T13:38:49;20.20;99.90
15969;DHT22;8085;53.472;9.794;2023-04-23T13:41:16;19.90;99.90
15969;DHT22;8085;53.472;9.794;2023-04-23T13:43:43;20.00;99.90
15969;DHT22;8085;53.472;9.794;2023-04-23T13:46:10;20.10;99.90
15969;DHT22;8085;53.472;9.794;2023-04-23T13:48:40;20.00;99.90
15969;DHT22;8085;53.472;9.794;2023-04-23T13:51:07;19.70;99.90
15969;DHT22;8085;53.472;9.794;2023-04-23T13:53:34;19.70;99.90
15969;DHT22;8085;53.472;9.794;2023-04-23T13:56:01;19.50;99.90
15969;DHT22;8085;53.472;9.794;2023-04-23T13:58:27;19.40;99.90
15969;DHT22;8085;53.472;9.794;2023-04-23T14:00:54;19.00;99.90
15969;DHT22;8085;53.472;9.794;2023-04-23T14:03:21;18.70;99.90
15969;DHT22;8085;53.472;9.794;2023-04-23T14:05:49;18.60;99.90
15969;DHT22;8085;53.472;9.794;2023-04-23T14:08:16;18.30;99.90
15969;DHT22;8085;53.472;9.794;2023-04-23T14:10:43;17.00;99.90
15969;DHT22;8085;53.472;9.794;2023-04-23T14:13:10;15.30;99.90
15969;DHT22;8085;53.472;9.794;2023-04-23T14:15:37;14.60;1.00
15969;DHT22;8085;53.472;9.794;2023-04-23T14:18:04;14.20;1.00
15969;DHT22;8085;53.472;9.794;2023-04-23T14:20:31;14.00;1.00
15969;DHT22;8085;53.472;9.794;2023-04-23T14:23:09;14.10;36.90
15969;DHT22;8085;53.472;9.794;2023-04-23T14:25:40;14.20;52.50
15969;DHT22;8085;53.472;9.794;2023-04-23T14:28:22;14.70;99.90
15969;DHT22;8085;53.472;9.794;2023-04-23T14:30:54;15.20;99.90
15969;DHT22;8085;53.472;9.794;2023-04-23T14:33:21;15.40;95.40
15969;DHT22;8085;53.472;9.794;2023-04-23T14:35:48;15.80;2.00
15969;DHT22;8085;53.472;9.794;2023-04-23T14:38:16;16.10;1.00
15969;DHT22;8085;53.472;9.794;2023-04-23T14:40:43;16.30;1.00
15969;DHT22;8085;53.472;9.794;2023-04-23T14:43:10;16.20;1.00
15969;DHT22;8085;53.472;9.794;2023-04-23T14:45:37;16.10;1.00
15969;DHT22;8085;53.472;9.794;2023-04-23T14:48:04;16.20;1.00
15969;DHT22;8085;53.472;9.794;2023-04-23T14:50:31;16.40;1.00
15969;DHT22;8085;53.472;9.794;2023-04-23T14:52:58;16.50;1.00
15969;DHT22;8085;53.472;9.794;2023-04-23T14:55:27;16.40;1.00
15969;DHT22;8085;53.472;9.794;2023-04-23T14:57:55;16.20;1.00
15969;DHT22;8085;53.472;9.794;2023-04-23T15:00:22;16.40;1.00
15969;DHT22;8085;53.472;9.794;2023-04-23T15:02:49;16.60;99.90
15969;DHT22;8085;53.472;9.794;2023-04-23T15:05:16;16.60;99.90
15969;DHT22;8085;53.472;9.794;2023-04-23T15:07:44;16.70;1.00
15969;DHT22;8085;53.472;9.794;2023-04-23T15:10:11;16.70;99.90
15969;DHT22;8085;53.472;9.794;2023-04-23T15:12:48;16.50;99.90
15969;DHT22;8085;53.472;9.794;2023-04-23T15:15:21;16.30;1.00
15969;DHT22;8085;53.472;9.794;2023-04-23T15:17:52;16.30;99.90
15969;DHT22;8085;53.472;9.794;2023-04-23T15:20:19;16.30;99.90
15969;DHT22;8085;53.472;9.794;2023-04-23T15:22:46;16.30;1.00
15969;DHT22;8085;53.472;9.794;2023-04-23T15:25:13;16.30;1.00
15969;DHT22;8085;53.472;9.794;2023-04-23T15:27:42;16.20;1.00
15969;DHT22;8085;53.472;9.794;2023-04-23T15:30:10;16.20;1.00
15969;DHT22;8085;53.472;9.794;2023-04-23T15:32:37;16.10;1.00
15969;DHT22;8085;53.472;9.794;2023-04-23T15:35:05;16.10;1.00
15969;DHT22;8085;53.472;9.794;2023-04-23T15:37:32;16.10;99.90
15969;DHT22;8085;53.472;9.794;2023-04-23T15:39:59;16.10;1.00
15969;DHT22;8085;53.472;9.794;2023-04-23T15:42:25;16.20;1.00
15969;DHT22;8085;53.472;9.794;2023-04-23T15:44:54;16.30;99.90
15969;DHT22;8085;53.472;9.794;2023-04-23T15:47:21;16.30;1.00
15969;DHT22;8085;53.472;9.794;2023-04-23T15:49:49;16.30;99.90
15969;DHT22;8085;53.472;9.794;2023-04-23T15:52:16;16.40;1.00
15969;DHT22;8085;53.472;9.794;2023-04-23T15:54:43;16.50;6.50
15969;DHT22;8085;53.472;9.794;2023-04-23T15:57:10;16.50;1.00
15969;DHT22;8085;53.472;9.794;2023-04-23T15:59:37;16.50;1.00
15969;DHT22;8085;53.472;9.794;2023-04-23T16:02:06;16.40;1.00